sensor_id;sensor_type;location;lat;lon;timestamp;P1;durP1;ratioP1;P2;durP2;ratioP2
11313;SDS011;5712;48.858;9.206;2023-03-01T00:00:37;21.63;;;11.40;;
11313;SDS011;5712;48.858;9.206;2023-03-01T00:03:04;17.63;;;11.23;;
11313;SDS011;5712;48.858;9.206;2023-03-01T00:05:31;21.03;;;12.10;;
11313;SDS011;5712;48.858;9.206;2023-03-01T00:07:57;18.60;;;11.53;;
11313;SDS011;5712;48.858;9.206;2023-03-01T00:10:25;18.50;;;11.60;;
11313;SDS011;5712;48.858;9.206;2023-03-01T00:12:52;18.33;;;11.30;;
11313;SDS011;5712;48.858;9.206;2023-03-01T00:15:18;18.87;;;11.07;;
11313;SDS011;5712;48.858;9.206;2023-03-01T00:17:45;18.10;;;11.47;;
11313;SDS011;5712;48.858;9.206;2023-03-01T00:20:11;19.33;;;11.60;;
11313;SDS011;5712;48.858;9.206;2023-03-01T00:22:38;20.47;;;11.43;;
11313;SDS011;5712;48.858;9.206;2023-03-01T00:25:04;22.17;;;12.10;;
11313;SDS011;5712;48.858;9.206;2023-03-01T00:27:32;18.97;;;12.20;;
11313;SDS011;5712;48.858;9.206;2023-03-01T00:29:59;17.57;;;11.03;;
11313;SDS011;5712;48.858;9.206;2023-03-01T00:32:25;18.37;;;12.30;;
11313;SDS011;5712;48.858;9.206;2023-03-01T00:34:52;18.47;;;11.90;;
11313;SDS011;5712;48.858;9.206;2023-03-01T00:37:21;18.40;;;12.30;;
11313;SDS011;5712;48.858;9.206;2023-03-01T00:39:57;19.90;;;12.73;;
11313;SDS011;5712;48.858;9.206;2023-03-01T00:42:24;20.97;;;12.40;;
11313;SDS011;5712;48.858;9.206;2023-03-01T00:44:51;21.70;;;12.93;;
11313;SDS011;5712;48.858;9.206;2023-03-01T00:47:18;21.63;;;12.40;;
11313;SDS011;5712;48.858;9.206;2023-03-01T00:49:44;18.17;;;11.63;;
11313;SDS011;5712;48.858;9.206;2023-03-01T00:52:11;19.60;;;12.17;;
11313;SDS011;5712;48.858;9.206;2023-03-01T00:54:37;19.40;;;11.33;;
11313;SDS011;5712;48.858;9.206;2023-03-01T00:57:04;21.13;;;12.73;;
11313;SDS011;5712;48.858;9.206;2023-03-01T00:59:30;20.87;;;12.63;;
11313;SDS011;5712;48.858;9.206;2023-03-01T01:01:58;20.13;;;12.63;;
11313;SDS011;5712;48.858;9.206;2023-03-01T01:04:24;20.90;;;12.87;;
11313;SDS011;5712;48.858;9.206;2023-03-01T01:06:51;20.47;;;12.97;;
11313;SDS011;5712;48.858;9.206;2023-03-01T01:09:17;21.27;;;13.30;;
11313;SDS011;5712;48.858;9.206;2023-03-01T01:11:44;22.23;;;13.20;;
11313;SDS011;5712;48.858;9.206;2023-03-01T01:14:11;24.27;;;13.20;;
11313;SDS011;5712;48.858;9.206;2023-03-01T01:16:38;23.60;;;13.90;;
11313;SDS011;5712;48.858;9.206;2023-03-01T01:19:06;21.10;;;12.37;;
11313;SDS011;5712;48.858;9.206;2023-03-01T01:21:33;22.20;;;12.67;;
11313;SDS011;5712;48.858;9.206;2023-03-01T01:23:59;21.07;;;13.03;;
11313;SDS011;5712;48.858;9.206;2023-03-01T01:26:27;21.60;;;13.23;;
11313;SDS011;5712;48.858;9.206;2023-03-01T01:28:54;19.73;;;13.23;;
11313;SDS011;5712;48.858;9.206;2023-03-01T01:31:21;21.33;;;12.83;;
11313;SDS011;5712;48.858;9.206;2023-03-01T01:33:49;20.50;;;13.27;;
11313;SDS011;5712;48.858;9.206;2023-03-01T01:36:17;20.83;;;12.67;;
11313;SDS011;5712;48.858;9.206;2023-03-01T01:38:43;18.10;;;11.73;;
11313;SDS011;5712;48.858;9.206;2023-03-01T01:41:10;20.00;;;12.90;;
11313;SDS011;5712;48.858;9.206;2023-03-01T01:43:38;20.03;;;12.07;;
11313;SDS011;5712;48.858;9.206;2023-03-01T01:46:10;21.67;;;12.27;;
11313;SDS011;5712;48.858;9.206;2023-03-01T01:48:43;22.53;;;13.20;;
11313;SDS011;5712;48.858;9.206;2023-03-01T01:51:13;22.03;;;12.47;;
11313;SDS011;5712;48.858;9.206;2023-03-01T01:53:42;20.17;;;13.03;;
11313;SDS011;5712;48.858;9.206;2023-03-01T01:56:15;20.73;;;12.73;;
11313;SDS011;5712;48.858;9.206;2023-03-01T01:58:43;23.80;;;12.83;;
11313;SDS011;5712;48.858;9.206;2023-03-01T02:01:12;19.37;;;12.07;;
11313;SDS011;5712;48.858;9.206;2023-03-01T02:03:39;20.83;;;12.93;;
11313;SDS011;5712;48.858;9.206;2023-03-01T02:06:12;21.20;;;12.63;;
11313;SDS011;5712;48.858;9.206;2023-03-01T02:08:44;20.37;;;13.33;;
11313;SDS011;5712;48.858;9.206;2023-03-01T02:11:13;19.80;;;12.13;;
11313;SDS011;5712;48.858;9.206;2023-03-01T02:13:40;19.63;;;12.17;;
11313;SDS011;5712;48.858;9.206;2023-03-01T02:16:08;22.57;;;13.13;;
11313;SDS011;5712;48.858;9.206;2023-03-01T02:18:36;22.97;;;13.97;;
11313;SDS011;5712;48.858;9.206;2023-03-01T02:21:12;21.67;;;12.97;;
11313;SDS011;5712;48.858;9.206;2023-03-01T02:23:53;20.73;;;12.80;;
11313;SDS011;5712;48.858;9.206;2023-03-01T02:26:23;22.77;;;13.07;;
11313;SDS011;5712;48.858;9.206;2023-03-01T02:28:57;19.47;;;12.27;;
11313;SDS011;5712;48.858;9.206;2023-03-01T02:31:24;20.83;;;13.03;;
11313;SDS011;5712;48.858;9.206;2023-03-01T02:34:14;18.90;;;12.50;;
11313;SDS011;5712;48.858;9.206;2023-03-01T02:36:44;21.77;;;12.67;;
11313;SDS011;5712;48.858;9.206;2023-03-01T02:39:14;20.70;;;13.30;;
11313;SDS011;5712;48.858;9.206;2023-03-01T02:41:44;20.57;;;12.23;;
11313;SDS011;5712;48.858;9.206;2023-03-01T02:44:14;19.60;;;12.80;;
11313;SDS011;5712;48.858;9.206;2023-03-01T02:46:44;20.27;;;12.73;;
11313;SDS011;5712;48.858;9.206;2023-03-01T02:49:21;24.43;;;13.27;;
11313;SDS011;5712;48.858;9.206;2023-03-01T02:52:01;20.47;;;12.63;;
11313;SDS011;5712;48.858;9.206;2023-03-01T02:54:41;21.90;;;13.53;;
11313;SDS011;5712;48.858;9.206;2023-03-01T02:57:12;21.67;;;12.83;;
11313;SDS011;5712;48.858;9.206;2023-03-01T02:59:40;21.03;;;12.93;;
11313;SDS011;5712;48.858;9.206;2023-03-01T03:02:18;21.27;;;13.93;;
11313;SDS011;5712;48.858;9.206;2023-03-01T03:05:00;23.47;;;12.90;;
11313;SDS011;5712;48.858;9.206;2023-03-01T03:07:28;21.43;;;13.50;;
11313;SDS011;5712;48.858;9.206;2023-03-01T03:09:54;23.33;;;13.47;;
11313;SDS011;5712;48.858;9.206;2023-03-01T03:12:21;24.80;;;14.03;;
11313;SDS011;5712;48.858;9.206;2023-03-01T03:14:49;22.03;;;13.90;;
11313;SDS011;5712;48.858;9.206;2023-03-01T03:17:15;23.00;;;13.80;;
11313;SDS011;5712;48.858;9.206;2023-03-01T03:19:42;24.50;;;14.67;;
11313;SDS011;5712;48.858;9.206;2023-03-01T03:22:10;24.20;;;14.47;;
11313;SDS011;5712;48.858;9.206;2023-03-01T03:24:37;21.63;;;13.83;;
11313;SDS011;5712;48.858;9.206;2023-03-01T03:27:03;21.73;;;13.43;;
11313;SDS011;5712;48.858;9.206;2023-03-01T03:29:30;21.50;;;13.80;;
11313;SDS011;5712;48.858;9.206;2023-03-01T03:31:58;24.07;;;13.77;;
11313;SDS011;5712;48.858;9.206;2023-03-01T03:34:25;22.70;;;13.37;;
11313;SDS011;5712;48.858;9.206;2023-03-01T03:36:52;24.23;;;13.37;;
11313;SDS011;5712;48.858;9.206;2023-03-01T03:39:21;23.87;;;14.07;;
11313;SDS011;5712;48.858;9.206;2023-03-01T03:41:48;21.27;;;13.33;;
11313;SDS011;5712;48.858;9.206;2023-03-01T03:44:14;20.40;;;13.00;;
11313;SDS011;5712;48.858;9.206;2023-03-01T03:46:41;22.10;;;13.87;;
11313;SDS011;5712;48.858;9.206;2023-03-01T03:49:09;19.87;;;14.00;;
11313;SDS011;5712;48.858;9.206;2023-03-01T03:51:35;24.63;;;14.40;;
11313;SDS011;5712;48.858;9.206;2023-03-01T03:54:02;21.03;;;13.43;;
11313;SDS011;5712;48.858;9.206;2023-03-01T03:56:28;19.97;;;12.93;;
11313;SDS011;5712;48.858;9.206;2023-03-01T03:58:55;21.60;;;12.57;;
11313;SDS011;5712;48.858;9.206;2023-03-01T04:01:21;21.87;;;13.43;;
11313;SDS011;5712;48.858;9.206;2023-03-01T04:03:48;24.37;;;13.83;;
11313;SDS011;5712;48.858;9.206;2023-03-01T04:06:20;22.80;;;12.90;;
11313;SDS011;5712;48.858;9.206;2023-03-01T04:08:47;20.97;;;13.03;;
11313;SDS011;5712;48.858;9.206;2023-03-01T04:11:16;20.73;;;12.80;;
11313;SDS011;5712;48.858;9.206;2023-03-01T04:13:55;21.00;;;12.20;;
11313;SDS011;5712;48.858;9.206;2023-03-01T04:16:23;24.00;;;13.77;;
11313;SDS011;5712;48.858;9.206;2023-03-01T04:18:52;22.37;;;13.17;;
11313;SDS011;5712;48.858;9.206;2023-03-01T04:21:25;22.20;;;14.33;;
11313;SDS011;5712;48.858;9.206;2023-03-01T04:23:52;20.70;;;13.77;;
11313;SDS011;5712;48.858;9.206;2023-03-01T04:26:19;20.47;;;13.20;;
11313;SDS011;5712;48.858;9.206;2023-03-01T04:28:46;21.90;;;13.40;;
11313;SDS011;5712;48.858;9.206;2023-03-01T04:31:15;20.30;;;13.23;;
11313;SDS011;5712;48.858;9.206;2023-03-01T04:33:43;19.07;;;12.53;;
11313;SDS011;5712;48.858;9.206;2023-03-01T04:36:12;20.13;;;13.70;;
11313;SDS011;5712;48.858;9.206;2023-03-01T04:38:41;21.63;;;13.87;;
11313;SDS011;5712;48.858;9.206;2023-03-01T04:41:12;22.97;;;13.63;;
11313;SDS011;5712;48.858;9.206;2023-03-01T04:43:40;20.73;;;13.50;;
11313;SDS011;5712;48.858;9.206;2023-03-01T04:46:08;22.90;;;13.73;;
11313;SDS011;5712;48.858;9.206;2023-03-01T04:48:37;22.27;;;14.30;;
11313;SDS011;5712;48.858;9.206;2023-03-01T04:51:05;22.27;;;14.03;;
11313;SDS011;5712;48.858;9.206;2023-03-01T04:53:32;23.63;;;14.60;;
11313;SDS011;5712;48.858;9.206;2023-03-01T04:56:02;21.83;;;13.57;;
11313;SDS011;5712;48.858;9.206;2023-03-01T04:58:29;21.10;;;12.87;;
11313;SDS011;5712;48.858;9.206;2023-03-01T05:00:56;20.57;;;13.33;;
11313;SDS011;5712;48.858;9.206;2023-03-01T05:03:22;22.80;;;13.40;;
11313;SDS011;5712;48.858;9.206;2023-03-01T05:05:50;23.23;;;14.73;;
11313;SDS011;5712;48.858;9.206;2023-03-01T05:08:18;21.70;;;13.70;;
11313;SDS011;5712;48.858;9.206;2023-03-01T05:10:46;24.40;;;14.70;;
11313;SDS011;5712;48.858;9.206;2023-03-01T05:13:16;21.07;;;14.10;;
11313;SDS011;5712;48.858;9.206;2023-03-01T05:15:47;21.70;;;13.90;;
11313;SDS011;5712;48.858;9.206;2023-03-01T05:18:14;21.97;;;13.50;;
11313;SDS011;5712;48.858;9.206;2023-03-01T05:20:41;21.17;;;13.20;;
11313;SDS011;5712;48.858;9.206;2023-03-01T05:23:07;23.87;;;14.30;;
11313;SDS011;5712;48.858;9.206;2023-03-01T05:25:34;22.73;;;14.17;;
11313;SDS011;5712;48.858;9.206;2023-03-01T05:28:05;20.80;;;13.33;;
11313;SDS011;5712;48.858;9.206;2023-03-01T05:30:34;21.97;;;12.83;;
11313;SDS011;5712;48.858;9.206;2023-03-01T05:33:01;21.20;;;14.10;;
11313;SDS011;5712;48.858;9.206;2023-03-01T05:35:28;20.97;;;13.30;;
11313;SDS011;5712;48.858;9.206;2023-03-01T05:37:57;21.73;;;13.70;;
11313;SDS011;5712;48.858;9.206;2023-03-01T05:40:24;21.37;;;13.40;;
11313;SDS011;5712;48.858;9.206;2023-03-01T05:42:52;21.60;;;13.90;;
11313;SDS011;5712;48.858;9.206;2023-03-01T05:45:19;21.03;;;13.20;;
11313;SDS011;5712;48.858;9.206;2023-03-01T05:47:48;21.80;;;14.00;;
11313;SDS011;5712;48.858;9.206;2023-03-01T05:50:16;23.53;;;13.13;;
11313;SDS011;5712;48.858;9.206;2023-03-01T05:52:45;22.67;;;14.07;;
11313;SDS011;5712;48.858;9.206;2023-03-01T05:55:12;23.33;;;13.93;;
11313;SDS011;5712;48.858;9.206;2023-03-01T05:57:38;21.80;;;14.57;;
11313;SDS011;5712;48.858;9.206;2023-03-01T06:00:06;25.27;;;15.80;;
11313;SDS011;5712;48.858;9.206;2023-03-01T06:02:33;22.37;;;14.20;;
11313;SDS011;5712;48.858;9.206;2023-03-01T06:05:01;23.50;;;14.77;;
11313;SDS011;5712;48.858;9.206;2023-03-01T06:07:28;22.57;;;13.90;;
11313;SDS011;5712;48.858;9.206;2023-03-01T06:09:54;22.47;;;13.80;;
11313;SDS011;5712;48.858;9.206;2023-03-01T06:12:21;23.20;;;14.73;;
11313;SDS011;5712;48.858;9.206;2023-03-01T06:14:47;22.83;;;14.00;;
11313;SDS011;5712;48.858;9.206;2023-03-01T06:17:14;22.13;;;13.83;;
11313;SDS011;5712;48.858;9.206;2023-03-01T06:19:40;26.77;;;13.77;;
11313;SDS011;5712;48.858;9.206;2023-03-01T06:22:08;22.87;;;13.43;;
11313;SDS011;5712;48.858;9.206;2023-03-01T06:24:35;24.23;;;13.97;;
11313;SDS011;5712;48.858;9.206;2023-03-01T06:27:01;24.63;;;14.23;;
11313;SDS011;5712;48.858;9.206;2023-03-01T06:29:28;20.93;;;14.03;;
11313;SDS011;5712;48.858;9.206;2023-03-01T06:31:54;21.60;;;14.20;;
11313;SDS011;5712;48.858;9.206;2023-03-01T06:34:21;24.73;;;13.53;;
11313;SDS011;5712;48.858;9.206;2023-03-01T06:36:47;24.53;;;14.40;;
11313;SDS011;5712;48.858;9.206;2023-03-01T06:39:15;24.87;;;14.83;;
11313;SDS011;5712;48.858;9.206;2023-03-01T06:41:42;29.13;;;15.80;;
11313;SDS011;5712;48.858;9.206;2023-03-01T06:44:09;26.87;;;14.90;;
11313;SDS011;5712;48.858;9.206;2023-03-01T06:46:35;29.77;;;14.93;;
11313;SDS011;5712;48.858;9.206;2023-03-01T06:49:02;24.43;;;15.00;;
11313;SDS011;5712;48.858;9.206;2023-03-01T06:51:29;21.07;;;13.70;;
11313;SDS011;5712;48.858;9.206;2023-03-01T06:53:58;27.03;;;15.57;;
11313;SDS011;5712;48.858;9.206;2023-03-01T06:56:26;25.37;;;14.33;;
11313;SDS011;5712;48.858;9.206;2023-03-01T06:58:53;26.93;;;14.57;;
11313;SDS011;5712;48.858;9.206;2023-03-01T07:01:19;27.50;;;14.50;;
11313;SDS011;5712;48.858;9.206;2023-03-01T07:03:46;26.73;;;15.00;;
11313;SDS011;5712;48.858;9.206;2023-03-01T07:06:12;23.33;;;15.10;;
11313;SDS011;5712;48.858;9.206;2023-03-01T07:08:39;24.70;;;14.27;;
11313;SDS011;5712;48.858;9.206;2023-03-01T07:11:05;20.57;;;14.13;;
11313;SDS011;5712;48.858;9.206;2023-03-01T07:13:33;22.70;;;13.80;;
11313;SDS011;5712;48.858;9.206;2023-03-01T07:15:59;26.40;;;15.10;;
11313;SDS011;5712;48.858;9.206;2023-03-01T07:18:26;24.00;;;15.00;;
11313;SDS011;5712;48.858;9.206;2023-03-01T07:20:53;25.80;;;14.77;;
11313;SDS011;5712;48.858;9.206;2023-03-01T07:23:19;26.37;;;14.97;;
11313;SDS011;5712;48.858;9.206;2023-03-01T07:25:50;22.87;;;13.93;;
11313;SDS011;5712;48.858;9.206;2023-03-01T07:28:17;25.30;;;14.93;;
11313;SDS011;5712;48.858;9.206;2023-03-01T07:30:45;24.10;;;14.40;;
11313;SDS011;5712;48.858;9.206;2023-03-01T07:33:12;25.53;;;15.07;;
11313;SDS011;5712;48.858;9.206;2023-03-01T07:35:38;24.97;;;15.23;;
11313;SDS011;5712;48.858;9.206;2023-03-01T07:38:04;24.50;;;15.20;;
11313;SDS011;5712;48.858;9.206;2023-03-01T07:40:31;27.83;;;15.53;;
11313;SDS011;5712;48.858;9.206;2023-03-01T07:42:59;25.77;;;15.00;;
11313;SDS011;5712;48.858;9.206;2023-03-01T07:45:26;25.97;;;14.43;;
11313;SDS011;5712;48.858;9.206;2023-03-01T07:47:55;28.00;;;15.00;;
11313;SDS011;5712;48.858;9.206;2023-03-01T07:50:22;27.63;;;14.73;;
11313;SDS011;5712;48.858;9.206;2023-03-01T07:52:48;24.03;;;14.47;;
11313;SDS011;5712;48.858;9.206;2023-03-01T07:55:16;24.30;;;14.77;;
11313;SDS011;5712;48.858;9.206;2023-03-01T07:57:43;23.43;;;14.37;;
11313;SDS011;5712;48.858;9.206;2023-03-01T08:00:10;23.17;;;15.10;;
11313;SDS011;5712;48.858;9.206;2023-03-01T08:02:38;24.93;;;14.33;;
11313;SDS011;5712;48.858;9.206;2023-03-01T08:05:08;22.23;;;13.60;;
11313;SDS011;5712;48.858;9.206;2023-03-01T08:07:35;25.97;;;15.00;;
11313;SDS011;5712;48.858;9.206;2023-03-01T08:10:01;22.77;;;14.27;;
11313;SDS011;5712;48.858;9.206;2023-03-01T08:12:28;24.63;;;14.47;;
11313;SDS011;5712;48.858;9.206;2023-03-01T08:14:55;22.67;;;14.60;;
11313;SDS011;5712;48.858;9.206;2023-03-01T08:17:22;25.93;;;14.57;;
11313;SDS011;5712;48.858;9.206;2023-03-01T08:19:48;24.83;;;14.13;;
11313;SDS011;5712;48.858;9.206;2023-03-01T08:22:16;23.97;;;14.47;;
11313;SDS011;5712;48.858;9.206;2023-03-01T08:24:43;26.40;;;15.60;;
11313;SDS011;5712;48.858;9.206;2023-03-01T08:27:09;25.67;;;14.90;;
11313;SDS011;5712;48.858;9.206;2023-03-01T08:29:37;22.50;;;14.43;;
11313;SDS011;5712;48.858;9.206;2023-03-01T08:32:03;27.90;;;14.93;;
11313;SDS011;5712;48.858;9.206;2023-03-01T08:34:30;21.73;;;14.87;;
11313;SDS011;5712;48.858;9.206;2023-03-01T08:36:57;23.47;;;14.60;;
11313;SDS011;5712;48.858;9.206;2023-03-01T08:39:25;23.57;;;14.60;;
11313;SDS011;5712;48.858;9.206;2023-03-01T08:41:52;23.00;;;14.70;;
11313;SDS011;5712;48.858;9.206;2023-03-01T08:44:18;22.93;;;14.23;;
11313;SDS011;5712;48.858;9.206;2023-03-01T08:46:46;24.87;;;14.87;;
11313;SDS011;5712;48.858;9.206;2023-03-01T08:49:15;23.23;;;14.83;;
11313;SDS011;5712;48.858;9.206;2023-03-01T08:51:43;24.93;;;15.00;;
11313;SDS011;5712;48.858;9.206;2023-03-01T08:54:13;21.70;;;13.80;;
11313;SDS011;5712;48.858;9.206;2023-03-01T08:56:42;26.57;;;14.47;;
11313;SDS011;5712;48.858;9.206;2023-03-01T08:59:09;25.57;;;14.63;;
11313;SDS011;5712;48.858;9.206;2023-03-01T09:01:35;25.20;;;15.30;;
11313;SDS011;5712;48.858;9.206;2023-03-01T09:04:02;24.23;;;15.33;;
11313;SDS011;5712;48.858;9.206;2023-03-01T09:06:29;23.77;;;14.47;;
11313;SDS011;5712;48.858;9.206;2023-03-01T09:08:56;25.10;;;15.47;;
11313;SDS011;5712;48.858;9.206;2023-03-01T09:11:23;24.03;;;15.07;;
11313;SDS011;5712;48.858;9.206;2023-03-01T09:13:51;26.00;;;15.47;;
11313;SDS011;5712;48.858;9.206;2023-03-01T09:16:18;24.30;;;14.40;;
11313;SDS011;5712;48.858;9.206;2023-03-01T09:18:48;23.80;;;14.73;;
11313;SDS011;5712;48.858;9.206;2023-03-01T09:21:15;24.97;;;15.03;;
11313;SDS011;5712;48.858;9.206;2023-03-01T09:23:43;23.70;;;14.27;;
11313;SDS011;5712;48.858;9.206;2023-03-01T09:26:12;23.27;;;14.50;;
11313;SDS011;5712;48.858;9.206;2023-03-01T09:28:41;23.47;;;15.40;;
11313;SDS011;5712;48.858;9.206;2023-03-01T09:31:10;23.77;;;15.27;;
11313;SDS011;5712;48.858;9.206;2023-03-01T09:33:38;27.20;;;14.77;;
11313;SDS011;5712;48.858;9.206;2023-03-01T09:36:07;22.47;;;14.67;;
11313;SDS011;5712;48.858;9.206;2023-03-01T09:38:37;25.13;;;15.47;;
11313;SDS011;5712;48.858;9.206;2023-03-01T09:41:08;23.67;;;14.20;;
11313;SDS011;5712;48.858;9.206;2023-03-01T09:43:38;24.40;;;15.37;;
11313;SDS011;5712;48.858;9.206;2023-03-01T09:46:13;23.27;;;14.90;;
11313;SDS011;5712;48.858;9.206;2023-03-01T09:48:42;22.83;;;14.87;;
11313;SDS011;5712;48.858;9.206;2023-03-01T09:51:12;24.07;;;15.13;;
11313;SDS011;5712;48.858;9.206;2023-03-01T09:53:43;23.80;;;14.83;;
11313;SDS011;5712;48.858;9.206;2023-03-01T09:56:12;24.53;;;14.90;;
11313;SDS011;5712;48.858;9.206;2023-03-01T09:58:46;21.40;;;14.37;;
11313;SDS011;5712;48.858;9.206;2023-03-01T10:01:25;20.83;;;13.80;;
11313;SDS011;5712;48.858;9.206;2023-03-01T10:04:00;21.57;;;14.60;;
11313;SDS011;5712;48.858;9.206;2023-03-01T10:06:36;22.07;;;14.47;;
11313;SDS011;5712;48.858;9.206;2023-03-01T10:09:05;21.80;;;13.97;;
11313;SDS011;5712;48.858;9.206;2023-03-01T10:11:36;23.77;;;15.63;;
11313;SDS011;5712;48.858;9.206;2023-03-01T10:14:05;20.80;;;13.77;;
11313;SDS011;5712;48.858;9.206;2023-03-01T10:16:41;22.10;;;14.07;;
11313;SDS011;5712;48.858;9.206;2023-03-01T10:19:16;22.13;;;14.07;;
11313;SDS011;5712;48.858;9.206;2023-03-01T10:21:46;21.27;;;14.27;;
11313;SDS011;5712;48.858;9.206;2023-03-01T10:24:16;22.47;;;15.00;;
11313;SDS011;5712;48.858;9.206;2023-03-01T10:26:52;22.80;;;14.07;;
11313;SDS011;5712;48.858;9.206;2023-03-01T10:29:23;21.73;;;13.83;;
11313;SDS011;5712;48.858;9.206;2023-03-01T10:31:53;21.03;;;14.53;;
11313;SDS011;5712;48.858;9.206;2023-03-01T10:34:22;20.63;;;13.83;;
11313;SDS011;5712;48.858;9.206;2023-03-01T10:36:55;19.93;;;13.80;;
11313;SDS011;5712;48.858;9.206;2023-03-01T10:39:24;24.07;;;14.70;;
11313;SDS011;5712;48.858;9.206;2023-03-01T10:41:53;22.00;;;13.93;;
11313;SDS011;5712;48.858;9.206;2023-03-01T10:44:35;21.97;;;13.93;;
11313;SDS011;5712;48.858;9.206;2023-03-01T10:47:08;18.57;;;13.37;;
11313;SDS011;5712;48.858;9.206;2023-03-01T10:49:39;20.97;;;13.17;;
11313;SDS011;5712;48.858;9.206;2023-03-01T10:52:19;20.77;;;13.20;;
11313;SDS011;5712;48.858;9.206;2023-03-01T10:54:51;17.47;;;12.23;;
11313;SDS011;5712;48.858;9.206;2023-03-01T10:57:30;18.37;;;12.90;;
11313;SDS011;5712;48.858;9.206;2023-03-01T11:00:02;19.93;;;12.50;;
11313;SDS011;5712;48.858;9.206;2023-03-01T11:02:45;19.30;;;12.83;;
11313;SDS011;5712;48.858;9.206;2023-03-01T11:05:16;17.93;;;12.70;;
11313;SDS011;5712;48.858;9.206;2023-03-01T11:07:48;16.83;;;13.33;;
11313;SDS011;5712;48.858;9.206;2023-03-01T11:10:17;21.00;;;13.43;;
11313;SDS011;5712;48.858;9.206;2023-03-01T11:12:45;18.93;;;13.10;;
11313;SDS011;5712;48.858;9.206;2023-03-01T11:15:19;20.90;;;12.47;;
11313;SDS011;5712;48.858;9.206;2023-03-01T11:17:49;18.57;;;12.53;;
11313;SDS011;5712;48.858;9.206;2023-03-01T11:20:18;16.83;;;11.97;;
11313;SDS011;5712;48.858;9.206;2023-03-01T11:22:52;18.53;;;11.93;;
11313;SDS011;5712;48.858;9.206;2023-03-01T11:25:21;18.07;;;12.17;;
11313;SDS011;5712;48.858;9.206;2023-03-01T11:27:51;18.83;;;12.57;;
11313;SDS011;5712;48.858;9.206;2023-03-01T11:30:20;18.33;;;12.03;;
11313;SDS011;5712;48.858;9.206;2023-03-01T11:32:53;17.80;;;12.53;;
11313;SDS011;5712;48.858;9.206;2023-03-01T11:35:29;17.03;;;12.00;;
11313;SDS011;5712;48.858;9.206;2023-03-01T11:37:59;17.20;;;11.43;;
11313;SDS011;5712;48.858;9.206;2023-03-01T11:40:37;16.57;;;11.67;;
11313;SDS011;5712;48.858;9.206;2023-03-01T11:43:10;18.50;;;12.40;;
11313;SDS011;5712;48.858;9.206;2023-03-01T11:45:43;20.53;;;12.10;;
11313;SDS011;5712;48.858;9.206;2023-03-01T11:48:38;18.67;;;12.33;;
11313;SDS011;5712;48.858;9.206;2023-03-01T11:51:19;18.23;;;12.63;;
11313;SDS011;5712;48.858;9.206;2023-03-01T11:53:54;18.47;;;12.00;;
11313;SDS011;5712;48.858;9.206;2023-03-01T11:56:29;19.40;;;13.23;;
11313;SDS011;5712;48.858;9.206;2023-03-01T11:59:03;18.57;;;12.13;;
11313;SDS011;5712;48.858;9.206;2023-03-01T12:01:49;19.03;;;12.03;;
11313;SDS011;5712;48.858;9.206;2023-03-01T12:04:34;20.10;;;13.20;;
11313;SDS011;5712;48.858;9.206;2023-03-01T12:07:20;18.63;;;12.50;;
11313;SDS011;5712;48.858;9.206;2023-03-01T12:10:13;18.53;;;12.70;;
11313;SDS011;5712;48.858;9.206;2023-03-01T12:12:49;20.27;;;13.33;;
11313;SDS011;5712;48.858;9.206;2023-03-01T12:15:33;18.40;;;12.57;;
11313;SDS011;5712;48.858;9.206;2023-03-01T12:18:19;20.87;;;12.70;;
11313;SDS011;5712;48.858;9.206;2023-03-01T12:21:05;18.07;;;12.73;;
11313;SDS011;5712;48.858;9.206;2023-03-01T12:23:48;19.10;;;13.13;;
11313;SDS011;5712;48.858;9.206;2023-03-01T12:26:29;17.70;;;11.93;;
11313;SDS011;5712;48.858;9.206;2023-03-01T12:32:00;17.60;;;12.50;;
11313;SDS011;5712;48.858;9.206;2023-03-01T12:34:55;17.63;;;12.37;;
11313;SDS011;5712;48.858;9.206;2023-03-01T12:37:38;17.23;;;12.67;;
11313;SDS011;5712;48.858;9.206;2023-03-01T12:40:20;18.83;;;12.40;;
11313;SDS011;5712;48.858;9.206;2023-03-01T12:43:03;18.00;;;13.37;;
11313;SDS011;5712;48.858;9.206;2023-03-01T12:45:45;18.13;;;12.43;;
11313;SDS011;5712;48.858;9.206;2023-03-01T12:48:20;19.27;;;13.00;;
11313;SDS011;5712;48.858;9.206;2023-03-01T12:50:57;15.07;;;11.83;;
11313;SDS011;5712;48.858;9.206;2023-03-01T12:53:29;18.30;;;12.90;;
11313;SDS011;5712;48.858;9.206;2023-03-01T12:55:59;19.00;;;12.60;;
11313;SDS011;5712;48.858;9.206;2023-03-01T12:58:29;20.13;;;12.70;;
11313;SDS011;5712;48.858;9.206;2023-03-01T13:01:04;20.13;;;13.03;;
11313;SDS011;5712;48.858;9.206;2023-03-01T13:03:43;19.17;;;12.30;;
11313;SDS011;5712;48.858;9.206;2023-03-01T13:06:25;17.57;;;12.57;;
11313;SDS011;5712;48.858;9.206;2023-03-01T13:09:04;17.17;;;12.37;;
11313;SDS011;5712;48.858;9.206;2023-03-01T13:11:40;18.50;;;12.17;;
11313;SDS011;5712;48.858;9.206;2023-03-01T13:17:04;19.30;;;12.87;;
11313;SDS011;5712;48.858;9.206;2023-03-01T13:19:57;19.17;;;11.80;;
11313;SDS011;5712;48.858;9.206;2023-03-01T13:22:25;18.43;;;13.20;;
11313;SDS011;5712;48.858;9.206;2023-03-01T13:25:00;17.93;;;12.57;;
11313;SDS011;5712;48.858;9.206;2023-03-01T13:27:28;16.23;;;12.23;;
11313;SDS011;5712;48.858;9.206;2023-03-01T13:29:55;17.57;;;12.67;;
11313;SDS011;5712;48.858;9.206;2023-03-01T13:32:28;18.57;;;13.03;;
11313;SDS011;5712;48.858;9.206;2023-03-01T13:34:59;19.03;;;13.30;;
11313;SDS011;5712;48.858;9.206;2023-03-01T13:37:31;18.43;;;12.90;;
11313;SDS011;5712;48.858;9.206;2023-03-01T13:40:01;18.50;;;12.03;;
11313;SDS011;5712;48.858;9.206;2023-03-01T13:42:33;17.53;;;12.83;;
11313;SDS011;5712;48.858;9.206;2023-03-01T13:45:12;18.20;;;13.40;;
11313;SDS011;5712;48.858;9.206;2023-03-01T13:47:42;20.40;;;13.63;;
11313;SDS011;5712;48.858;9.206;2023-03-01T13:50:18;23.03;;;13.63;;
11313;SDS011;5712;48.858;9.206;2023-03-01T13:52:48;17.57;;;12.57;;
11313;SDS011;5712;48.858;9.206;2023-03-01T13:55:18;19.83;;;13.60;;
11313;SDS011;5712;48.858;9.206;2023-03-01T13:57:50;20.53;;;13.00;;
11313;SDS011;5712;48.858;9.206;2023-03-01T14:00:30;19.83;;;13.47;;
11313;SDS011;5712;48.858;9.206;2023-03-01T14:03:00;18.57;;;13.13;;
11313;SDS011;5712;48.858;9.206;2023-03-01T14:05:32;18.60;;;13.80;;
11313;SDS011;5712;48.858;9.206;2023-03-01T14:07:59;19.80;;;12.87;;
11313;SDS011;5712;48.858;9.206;2023-03-01T14:10:25;17.40;;;12.80;;
11313;SDS011;5712;48.858;9.206;2023-03-01T14:13:02;21.47;;;13.33;;
11313;SDS011;5712;48.858;9.206;2023-03-01T14:15:39;22.20;;;13.97;;
11313;SDS011;5712;48.858;9.206;2023-03-01T14:18:14;20.73;;;13.93;;
11313;SDS011;5712;48.858;9.206;2023-03-01T14:20:48;22.37;;;13.27;;
11313;SDS011;5712;48.858;9.206;2023-03-01T14:23:17;19.83;;;13.33;;
11313;SDS011;5712;48.858;9.206;2023-03-01T14:25:46;19.90;;;13.50;;
11313;SDS011;5712;48.858;9.206;2023-03-01T14:28:15;20.87;;;13.77;;
11313;SDS011;5712;48.858;9.206;2023-03-01T14:30:45;21.33;;;14.20;;
11313;SDS011;5712;48.858;9.206;2023-03-01T14:33:19;18.77;;;12.70;;
11313;SDS011;5712;48.858;9.206;2023-03-01T14:35:56;20.13;;;13.60;;
11313;SDS011;5712;48.858;9.206;2023-03-01T14:38:28;20.03;;;13.60;;
11313;SDS011;5712;48.858;9.206;2023-03-01T14:40:58;20.07;;;13.30;;
11313;SDS011;5712;48.858;9.206;2023-03-01T14:43:27;18.97;;;13.10;;
11313;SDS011;5712;48.858;9.206;2023-03-01T14:45:55;22.03;;;14.33;;
11313;SDS011;5712;48.858;9.206;2023-03-01T14:48:22;23.10;;;14.37;;
11313;SDS011;5712;48.858;9.206;2023-03-01T14:50:49;20.63;;;13.43;;
11313;SDS011;5712;48.858;9.206;2023-03-01T14:53:19;19.00;;;12.53;;
11313;SDS011;5712;48.858;9.206;2023-03-01T14:55:48;20.53;;;13.50;;